createdAt,value
2023-07-07T00:00:24.197Z,36.60
2023-07-07T00:02:25.898Z,36.96
2023-07-07T00:04:28.924Z,37.05
2023-07-07T00:06:30.734Z,36.84
2023-07-07T00:08:32.561Z,36.99
2023-07-07T00:10:35.655Z,36.89
2023-07-07T00:12:37.428Z,36.80
2023-07-07T00:14:39.115Z,37.05
2023-07-07T00:16:40.841Z,37.36
2023-07-07T00:18:42.564Z,37.30
2023-07-07T00:20:44.389Z,37.01
2023-07-07T00:22:46.052Z,37.34
2023-07-07T00:24:47.640Z,37.26
2023-07-07T00:26:50.763Z,36.91
2023-07-07T00:28:52.757Z,37.27
2023-07-07T00:30:54.450Z,37.03
2023-07-07T00:32:56.227Z,37.09
2023-07-07T00:34:58.097Z,37.03
2023-07-07T00:36:59.772Z,37.22
2023-07-07T00:39:01.424Z,37.11
2023-07-07T00:41:04.875Z,37.41
2023-07-07T00:43:11.611Z,37.47
2023-07-07T00:45:16.496Z,37.57
2023-07-07T00:47:18.695Z,37.66
2023-07-07T00:49:22.560Z,37.67
2023-07-07T00:51:28.169Z,37.79
2023-07-07T00:53:31.218Z,37.87
2023-07-07T00:55:37.454Z,37.74
2023-07-07T00:57:41.930Z,37.71
2023-07-07T00:59:47.517Z,37.97
2023-07-07T01:01:55.222Z,37.56
2023-07-07T01:04:00.769Z,37.62
2023-07-07T01:06:03.507Z,37.82
2023-07-07T01:08:06.357Z,37.82
2023-07-07T01:10:08.520Z,37.58
2023-07-07T01:12:12.033Z,37.87
2023-07-07T01:14:18.322Z,37.90
2023-07-07T01:16:31.074Z,37.87
2023-07-07T01:18:45.090Z,37.70
2023-07-07T01:20:52.914Z,37.70
2023-07-07T01:23:36.028Z,37.81
2023-07-07T01:25:58.062Z,38.14
2023-07-07T01:28:25.432Z,38.44
2023-07-07T01:30:36.527Z,38.11
2023-07-07T01:32:39.176Z,38.10
2023-07-07T01:34:41.159Z,37.99
2023-07-07T01:36:42.870Z,38.00
2023-07-07T01:38:47.097Z,37.75
2023-07-07T01:40:53.710Z,37.94
2023-07-07T01:43:01.058Z,37.51
2023-07-07T01:45:11.563Z,37.82
2023-07-07T01:47:17.936Z,37.83
2023-07-07T01:49:23.888Z,37.42
2023-07-07T01:51:32.549Z,37.83
2023-07-07T01:53:36.304Z,37.50
2023-07-07T01:55:42.767Z,37.69
2023-07-07T01:57:47.107Z,37.62
2023-07-07T01:59:48.877Z,37.46
2023-07-07T02:01:51.317Z,37.55
2023-07-07T02:03:54.329Z,37.59
2023-07-07T02:05:55.998Z,37.75
2023-07-07T02:07:57.691Z,37.94
2023-07-07T02:09:59.384Z,38.16
2023-07-07T02:12:01.402Z,38.08
2023-07-07T02:14:03.111Z,37.78
2023-07-07T02:16:05.290Z,37.43
2023-07-07T02:18:07.357Z,37.61
2023-07-07T02:20:11.617Z,37.40
2023-07-07T02:22:13.534Z,37.84
2023-07-07T02:24:15.180Z,38.28
2023-07-07T02:26:17.302Z,38.30
2023-07-07T02:28:18.942Z,38.34
2023-07-07T02:30:20.542Z,38.83
2023-07-07T02:32:22.237Z,38.95
2023-07-07T02:34:23.918Z,39.39
2023-07-07T02:36:27.079Z,39.59
2023-07-07T02:38:29.755Z,39.62
2023-07-07T02:40:31.470Z,39.95
2023-07-07T02:42:33.150Z,40.38
2023-07-07T02:44:34.866Z,39.77
2023-07-07T02:46:36.555Z,40.32
2023-07-07T02:48:38.786Z,40.69
2023-07-07T02:50:40.599Z,40.53
2023-07-07T02:52:43.629Z,40.64
2023-07-07T02:54:45.258Z,40.70
2023-07-07T02:56:46.921Z,41.07
2023-07-07T02:58:48.564Z,41.04
2023-07-07T03:00:50.321Z,41.19
2023-07-07T03:02:52.152Z,40.82
2023-07-07T03:04:53.829Z,41.18
2023-07-07T03:06:55.410Z,41.27
2023-07-07T03:08:58.422Z,41.26
2023-07-07T03:11:05.041Z,41.48
2023-07-07T03:13:07.356Z,41.33
2023-07-07T03:15:09.621Z,41.25
2023-07-07T03:17:11.303Z,41.22
2023-07-07T03:19:13.805Z,41.51
2023-07-07T03:21:17.653Z,41.33
2023-07-07T03:23:19.427Z,41.50
2023-07-07T03:25:22.390Z,41.76
2023-07-07T03:27:24.013Z,41.55
2023-07-07T03:29:25.708Z,41.55
2023-07-07T03:31:29.465Z,41.68
2023-07-07T03:33:31.109Z,41.40
2023-07-07T03:35:32.752Z,41.34
2023-07-07T03:37:34.354Z,41.52
2023-07-07T03:39:36.011Z,41.52
2023-07-07T03:41:39.053Z,41.26
2023-07-07T03:43:40.685Z,41.53
2023-07-07T03:45:42.325Z,41.71
2023-07-07T03:47:44.597Z,41.56
2023-07-07T03:49:47.732Z,41.76
2023-07-07T03:51:49.513Z,41.68
2023-07-07T03:53:51.844Z,41.81
2023-07-07T03:55:53.601Z,41.84
2023-07-07T03:57:57.040Z,41.25
2023-07-07T03:59:58.597Z,41.72
2023-07-07T04:02:00.172Z,41.44
2023-07-07T04:04:02.136Z,41.73
2023-07-07T04:06:04.422Z,41.77
2023-07-07T04:08:06.418Z,41.68
2023-07-07T04:10:08.831Z,41.63
2023-07-07T04:12:10.903Z,41.88
2023-07-07T04:14:13.884Z,41.72
2023-07-07T04:16:18.105Z,41.91
2023-07-07T04:18:19.710Z,41.82
2023-07-07T04:20:21.310Z,41.97
2023-07-07T04:22:23.029Z,43.19
2023-07-07T04:24:24.624Z,44.11
2023-07-07T04:26:28.830Z,44.16
2023-07-07T04:28:30.858Z,43.32
2023-07-07T04:30:34.013Z,42.78
2023-07-07T04:32:35.754Z,41.80
2023-07-07T04:34:37.438Z,41.79
2023-07-07T04:36:39.040Z,41.46
2023-07-07T04:38:40.641Z,40.85
2023-07-07T04:40:42.279Z,40.54
2023-07-07T04:42:43.853Z,40.98
2023-07-07T04:44:45.681Z,40.21
2023-07-07T04:46:48.782Z,40.97
2023-07-07T04:48:50.569Z,41.25
2023-07-07T04:50:52.211Z,40.88
2023-07-07T04:52:53.876Z,40.08
2023-07-07T04:54:55.465Z,38.81
2023-07-07T04:56:57.071Z,38.96
2023-07-07T04:58:58.719Z,40.69
2023-07-07T05:01:07.821Z,40.19
2023-07-07T05:03:10.775Z,40.34
2023-07-07T05:05:12.385Z,40.20
2023-07-07T05:07:14.002Z,39.90
2023-07-07T05:09:15.758Z,40.08
2023-07-07T05:11:19.498Z,39.83
2023-07-07T05:13:21.233Z,39.81
2023-07-07T05:15:24.635Z,39.65
2023-07-07T05:17:26.456Z,38.91
2023-07-07T05:19:29.493Z,39.13
2023-07-07T05:21:31.107Z,39.04
2023-07-07T05:23:32.908Z,38.56
2023-07-07T05:25:34.486Z,39.19
2023-07-07T05:27:36.167Z,38.64
2023-07-07T05:29:37.795Z,39.04
2023-07-07T05:31:39.386Z,39.23
2023-07-07T05:33:41.163Z,39.28
2023-07-07T05:35:51.260Z,38.79
2023-07-07T05:37:52.853Z,38.91
2023-07-07T05:39:54.493Z,38.98
2023-07-07T05:41:56.351Z,38.74
2023-07-07T05:43:57.944Z,39.10
2023-07-07T05:46:02.670Z,39.43
2023-07-07T05:48:06.006Z,39.75
2023-07-07T05:50:09.895Z,39.41
2023-07-07T05:52:12.939Z,39.34
2023-07-07T05:54:14.609Z,39.24
2023-07-07T05:56:19.795Z,39.28
2023-07-07T05:58:21.447Z,39.60
2023-07-07T06:00:23.453Z,39.39
2023-07-07T06:02:25.213Z,39.69
2023-07-07T06:04:26.839Z,39.68
2023-07-07T06:06:28.461Z,40.38
2023-07-07T06:08:31.461Z,39.58
2023-07-07T06:10:33.113Z,39.97
2023-07-07T06:12:34.891Z,40.19
2023-07-07T06:14:36.686Z,39.84
2023-07-07T06:16:38.431Z,39.72
2023-07-07T06:18:40.082Z,40.57
2023-07-07T06:20:41.880Z,39.92
2023-07-07T06:22:45.880Z,40.27
2023-07-07T06:24:48.960Z,40.50
2023-07-07T06:26:50.589Z,41.59
2023-07-07T06:28:52.208Z,40.52
2023-07-07T06:30:54.398Z,41.89
2023-07-07T06:32:56.367Z,39.50
2023-07-07T06:34:58.222Z,41.40
2023-07-07T06:36:59.866Z,42.10
2023-07-07T06:39:01.542Z,40.98
2023-07-07T06:41:04.651Z,41.03
2023-07-07T06:43:08.968Z,40.49
2023-07-07T06:45:11.166Z,39.43
2023-07-07T06:47:14.923Z,40.33
2023-07-07T06:49:16.791Z,41.49
2023-07-07T06:51:18.551Z,41.26
2023-07-07T06:53:20.213Z,38.76
2023-07-07T06:55:22.212Z,39.12
2023-07-07T06:57:25.293Z,41.01
2023-07-07T06:59:27.133Z,41.38
2023-07-07T07:01:28.834Z,38.49
2023-07-07T07:03:30.961Z,38.86
2023-07-07T07:05:32.762Z,39.11
2023-07-07T07:07:34.878Z,39.46
2023-07-07T07:09:36.948Z,39.74
2023-07-07T07:11:38.631Z,39.83
2023-07-07T07:13:41.714Z,38.44
2023-07-07T07:15:43.424Z,39.29
2023-07-07T07:17:45.126Z,38.77
2023-07-07T07:19:50.645Z,38.92
2023-07-07T07:21:54.730Z,38.13
2023-07-07T07:23:56.464Z,37.80
2023-07-07T07:25:58.255Z,37.17
2023-07-07T07:28:00.114Z,37.05
2023-07-07T07:30:03.540Z,38.08
2023-07-07T07:32:06.151Z,35.33
2023-07-07T07:34:25.563Z,36.84
2023-07-07T07:36:27.348Z,37.36
2023-07-07T07:38:29.062Z,36.65
2023-07-07T07:40:31.134Z,37.34
2023-07-07T07:42:32.875Z,37.56
2023-07-07T07:44:34.536Z,38.24
2023-07-07T07:46:37.975Z,35.73
2023-07-07T07:48:40.119Z,35.70
2023-07-07T07:50:42.025Z,36.66
2023-07-07T07:52:44.020Z,38.16
2023-07-07T07:54:46.060Z,37.66
2023-07-07T07:56:48.029Z,36.96
2023-07-07T07:58:49.780Z,37.67
2023-07-07T08:00:51.870Z,36.69
2023-07-07T08:02:55.093Z,36.86
2023-07-07T08:04:56.871Z,34.77
2023-07-07T08:06:58.804Z,35.02
2023-07-07T08:09:00.943Z,34.88
2023-07-07T08:11:13.894Z,37.27
2023-07-07T08:13:24.758Z,36.57
2023-07-07T08:15:33.514Z,34.15
2023-07-07T08:17:35.389Z,34.26
2023-07-07T08:19:40.509Z,35.58
2023-07-07T08:21:42.256Z,36.23
2023-07-07T08:23:43.921Z,37.62
2023-07-07T08:25:45.650Z,36.11
2023-07-07T08:29:52.082Z,34.03
2023-07-07T08:31:53.982Z,36.11
2023-07-07T08:34:00.535Z,37.63
2023-07-07T08:36:06.017Z,33.39
2023-07-07T08:38:10.087Z,35.13
2023-07-07T08:40:18.996Z,34.33
2023-07-07T08:42:25.260Z,36.37
2023-07-07T08:44:29.497Z,33.41
2023-07-07T08:46:43.805Z,32.89
2023-07-07T08:48:50.640Z,32.64
2023-07-07T08:50:57.427Z,33.32
2023-07-07T08:53:12.413Z,32.66
2023-07-07T08:55:37.788Z,34.26
2023-07-07T08:57:50.264Z,33.74
2023-07-07T09:00:00.294Z,32.00
2023-07-07T09:02:15.157Z,32.08
2023-07-07T09:04:41.844Z,34.00
2023-07-07T09:06:55.492Z,31.78
2023-07-07T09:09:11.908Z,32.77
2023-07-07T09:11:21.660Z,34.25
2023-07-07T09:13:28.117Z,33.81
2023-07-07T09:15:39.359Z,33.67
2023-07-07T09:17:46.248Z,33.61
2023-07-07T09:19:49.407Z,31.85
2023-07-07T09:21:56.605Z,32.01
2023-07-07T09:24:07.210Z,32.85
2023-07-07T09:26:16.990Z,33.67
2023-07-07T09:28:20.665Z,33.59
2023-07-07T09:30:30.020Z,33.33
2023-07-07T09:32:32.051Z,34.57
2023-07-07T09:34:34.049Z,36.82
2023-07-07T09:36:41.107Z,43.89
2023-07-07T09:38:53.015Z,35.92
2023-07-07T09:41:08.695Z,36.84
2023-07-07T09:43:21.513Z,32.75
2023-07-07T09:45:36.319Z,31.52
2023-07-07T09:47:45.293Z,39.09
2023-07-07T09:49:53.152Z,38.06
2023-07-07T09:52:03.868Z,35.00
2023-07-07T09:54:09.462Z,33.61
2023-07-07T09:56:15.990Z,34.04
2023-07-07T09:58:22.497Z,33.17
2023-07-07T10:00:39.468Z,33.34
2023-07-07T10:02:46.644Z,33.17
2023-07-07T10:04:53.402Z,32.63
2023-07-07T10:06:58.068Z,32.29
2023-07-07T10:09:00.935Z,31.62
2023-07-07T10:13:24.476Z,32.23
2023-07-07T10:15:48.973Z,31.40
2023-07-07T10:17:58.259Z,30.27
2023-07-07T10:20:02.831Z,31.75
2023-07-07T10:22:06.136Z,31.67
2023-07-07T10:24:11.281Z,32.73
2023-07-07T10:26:13.133Z,31.85
2023-07-07T10:28:18.244Z,30.80
2023-07-07T10:30:25.007Z,32.02
2023-07-07T10:32:28.347Z,31.54
2023-07-07T10:34:34.647Z,29.94
2023-07-07T10:36:39.160Z,29.64
2023-07-07T10:38:54.758Z,29.55
2023-07-07T10:40:58.290Z,30.26
2023-07-07T10:43:00.343Z,28.79
2023-07-07T10:45:04.285Z,29.31
2023-07-07T10:47:21.589Z,29.18
2023-07-07T10:49:26.309Z,29.32
2023-07-07T10:51:36.726Z,28.70
2023-07-07T10:53:50.312Z,27.66
2023-07-07T10:56:08.608Z,29.94
2023-07-07T10:58:24.466Z,28.81
2023-07-07T11:00:41.464Z,29.04
2023-07-07T11:03:02.459Z,27.20
2023-07-07T11:05:21.732Z,28.17
2023-07-07T11:07:33.211Z,25.96
2023-07-07T11:09:54.858Z,27.61
2023-07-07T11:12:02.702Z,28.89
2023-07-07T11:14:21.377Z,29.81
2023-07-07T11:16:36.696Z,29.25
2023-07-07T11:18:59.442Z,29.00
2023-07-07T11:21:13.227Z,28.01
2023-07-07T11:23:37.588Z,29.74
2023-07-07T11:25:46.589Z,28.94
2023-07-07T11:28:04.178Z,26.79
2023-07-07T11:30:15.989Z,27.10
2023-07-07T11:32:30.124Z,26.20
2023-07-07T11:34:46.049Z,26.66
2023-07-07T11:37:00.087Z,25.22
2023-07-07T11:39:11.740Z,25.06
2023-07-07T11:41:21.897Z,26.79
2023-07-07T11:43:37.032Z,27.19
2023-07-07T11:45:54.109Z,27.90
2023-07-07T11:48:20.713Z,28.27
2023-07-07T11:50:39.630Z,25.72
2023-07-07T11:52:57.463Z,27.42
2023-07-07T11:55:15.085Z,24.90
2023-07-07T11:57:31.186Z,24.46
2023-07-07T11:59:55.011Z,24.17
2023-07-07T12:01:59.051Z,23.73
2023-07-07T12:04:11.320Z,26.10
2023-07-07T12:06:23.124Z,26.53
2023-07-07T12:08:37.895Z,25.49
2023-07-07T12:10:45.518Z,25.81
2023-07-07T12:12:57.596Z,24.30
2023-07-07T12:15:04.573Z,25.07
2023-07-07T12:17:13.679Z,24.13
2023-07-07T12:19:24.486Z,24.34
2023-07-07T12:21:30.097Z,25.89
2023-07-07T12:23:36.979Z,25.17
2023-07-07T12:25:38.646Z,24.63
2023-07-07T12:27:44.492Z,24.17
2023-07-07T12:29:48.459Z,24.96
2023-07-07T12:31:50.124Z,24.25
2023-07-07T12:33:51.778Z,23.32
2023-07-07T12:35:57.397Z,21.94
2023-07-07T12:38:16.024Z,21.76
2023-07-07T12:40:19.943Z,21.91
2023-07-07T12:42:23.369Z,25.04
2023-07-07T12:44:27.000Z,21.81
2023-07-07T12:46:32.291Z,23.24
2023-07-07T12:48:34.181Z,22.14
2023-07-07T12:50:38.979Z,23.69
2023-07-07T12:52:45.174Z,20.20
2023-07-07T12:54:53.309Z,19.94
2023-07-07T12:57:04.165Z,19.92
2023-07-07T12:59:34.902Z,22.15
2023-07-07T13:01:38.193Z,18.86
2023-07-07T13:03:45.006Z,17.73
2023-07-07T13:05:53.621Z,19.29
2023-07-07T13:08:01.709Z,17.81
2023-07-07T13:10:06.665Z,18.26
2023-07-07T13:12:44.939Z,16.83
2023-07-07T13:14:46.803Z,18.94
2023-07-07T13:16:51.778Z,17.52
2023-07-07T13:18:53.831Z,17.94
2023-07-07T13:20:57.644Z,16.57
2023-07-07T13:23:05.806Z,16.74
2023-07-07T13:25:17.994Z,16.96
2023-07-07T13:27:23.714Z,14.65
2023-07-07T13:29:28.122Z,16.47
2023-07-07T13:31:29.872Z,15.48
2023-07-07T13:33:31.987Z,14.96
2023-07-07T13:35:36.836Z,17.66
2023-07-07T13:37:40.925Z,16.65
2023-07-07T13:39:43.142Z,15.34
2023-07-07T13:41:45.871Z,17.64
2023-07-07T13:43:49.652Z,16.58
2023-07-07T13:45:59.780Z,15.45
2023-07-07T13:48:09.748Z,15.35
2023-07-07T13:50:15.660Z,17.71
2023-07-07T13:52:21.482Z,16.02
2023-07-07T13:54:25.122Z,16.48
2023-07-07T13:56:28.280Z,14.65
2023-07-07T13:58:30.416Z,16.75
2023-07-07T14:00:35.842Z,14.79
2023-07-07T14:02:43.287Z,14.49
2023-07-07T14:04:48.633Z,14.79
2023-07-07T14:06:52.264Z,14.60
2023-07-07T14:08:56.725Z,14.76
2023-07-07T14:11:04.997Z,15.29
2023-07-07T14:13:13.646Z,15.69
2023-07-07T14:15:15.675Z,14.13
2023-07-07T14:17:22.004Z,14.79
2023-07-07T14:19:33.370Z,14.46
2023-07-07T14:21:35.704Z,15.58
2023-07-07T14:23:42.393Z,15.08
2023-07-07T14:25:48.815Z,16.11
2023-07-07T14:27:55.693Z,15.10
2023-07-07T14:29:58.516Z,15.72
2023-07-07T14:32:02.957Z,17.10
2023-07-07T14:34:05.074Z,15.80
2023-07-07T14:36:19.539Z,16.55
2023-07-07T14:38:30.266Z,15.90
2023-07-07T14:40:34.878Z,17.30
2023-07-07T14:42:36.772Z,15.64
2023-07-07T14:44:40.475Z,15.85
2023-07-07T14:46:42.322Z,15.50
2023-07-07T14:48:49.373Z,15.95
2023-07-07T14:50:52.809Z,16.02
2023-07-07T14:52:57.523Z,15.98
2023-07-07T14:55:01.285Z,18.32
2023-07-07T14:57:06.183Z,16.45
2023-07-07T14:59:18.342Z,15.43
2023-07-07T15:01:23.576Z,16.21
2023-07-07T15:03:33.173Z,16.07
2023-07-07T15:05:35.160Z,15.53
2023-07-07T15:07:36.974Z,15.93
2023-07-07T15:09:43.060Z,16.63
2023-07-07T15:11:45.995Z,17.69
2023-07-07T15:13:48.017Z,15.68
2023-07-07T15:15:53.742Z,16.15
2023-07-07T15:17:55.625Z,15.93
2023-07-07T15:19:57.537Z,16.28
2023-07-07T15:21:59.265Z,18.27
2023-07-07T15:24:00.976Z,16.09
2023-07-07T15:26:04.687Z,17.03
2023-07-07T15:28:11.831Z,15.64
2023-07-07T15:30:15.812Z,15.97
2023-07-07T15:32:20.205Z,15.91
2023-07-07T15:34:22.512Z,16.22
2023-07-07T15:36:29.093Z,15.94
2023-07-07T15:38:55.821Z,15.89
2023-07-07T15:40:57.572Z,16.01
2023-07-07T15:43:00.615Z,16.53
2023-07-07T15:45:02.410Z,16.00
2023-07-07T15:47:05.027Z,16.07
2023-07-07T15:49:13.445Z,15.99
2023-07-07T15:51:25.103Z,16.93
2023-07-07T15:53:26.827Z,15.85
2023-07-07T15:55:28.560Z,16.41
2023-07-07T15:57:30.345Z,18.60
2023-07-07T15:59:33.686Z,19.52
2023-07-07T16:01:35.442Z,20.19
2023-07-07T16:03:37.227Z,20.74
2023-07-07T16:05:39.313Z,21.08
2023-07-07T16:07:41.186Z,20.80
2023-07-07T16:09:43.068Z,20.20
2023-07-07T16:11:45.911Z,17.46
2023-07-07T16:13:52.006Z,16.84
2023-07-07T16:15:58.569Z,16.50
2023-07-07T16:18:00.467Z,17.51
2023-07-07T16:20:13.240Z,19.78
2023-07-07T16:22:16.846Z,17.29
2023-07-07T16:24:21.343Z,17.44
2023-07-07T16:26:28.469Z,19.15
2023-07-07T16:28:30.254Z,20.43
2023-07-07T16:30:40.076Z,17.78
2023-07-07T16:32:43.246Z,17.69
2023-07-07T16:34:45.075Z,18.32
2023-07-07T16:36:46.782Z,18.59
2023-07-07T16:38:50.030Z,17.78
2023-07-07T16:40:52.678Z,17.42
2023-07-07T16:42:54.385Z,17.10
2023-07-07T16:44:56.233Z,17.15
2023-07-07T16:46:57.978Z,17.33
2023-07-07T16:49:01.078Z,17.29
2023-07-07T16:51:05.346Z,16.68
2023-07-07T16:53:07.063Z,17.58
2023-07-07T16:55:11.593Z,16.59
2023-07-07T16:57:18.669Z,17.22
2023-07-07T16:59:20.374Z,16.99
2023-07-07T17:01:24.588Z,17.34
2023-07-07T17:03:26.384Z,18.58
2023-07-07T17:05:29.456Z,17.01
2023-07-07T17:07:31.144Z,17.21
2023-07-07T17:09:32.859Z,17.34
2023-07-07T17:11:34.499Z,16.81
2023-07-07T17:13:36.469Z,18.00
2023-07-07T17:15:38.152Z,17.22
2023-07-07T17:17:39.924Z,17.14
2023-07-07T17:19:41.747Z,16.96
2023-07-07T17:21:44.796Z,17.11
2023-07-07T17:23:50.269Z,18.55
2023-07-07T17:25:51.941Z,18.33
2023-07-07T17:27:56.300Z,19.44
2023-07-07T17:29:58.009Z,19.22
2023-07-07T17:31:59.641Z,18.22
2023-07-07T17:34:01.296Z,20.38
2023-07-07T17:36:19.757Z,18.11
2023-07-07T17:38:25.017Z,20.14
2023-07-07T17:40:36.633Z,19.39
2023-07-07T17:42:38.340Z,18.41
2023-07-07T17:44:40.033Z,18.92
2023-07-07T17:46:41.850Z,18.00
2023-07-07T17:48:43.492Z,17.68
2023-07-07T17:50:49.337Z,18.56
2023-07-07T17:52:51.466Z,18.41
2023-07-07T17:54:54.604Z,17.89
2023-07-07T17:56:56.224Z,17.62
2023-07-07T17:58:58.817Z,17.73
2023-07-07T18:01:00.707Z,18.06
2023-07-07T18:03:04.733Z,17.94
2023-07-07T18:05:07.191Z,17.62
2023-07-07T18:07:09.212Z,17.49
2023-07-07T18:09:13.707Z,18.50
2023-07-07T18:11:18.707Z,18.22
2023-07-07T18:13:20.361Z,18.85
2023-07-07T18:15:25.165Z,18.87
2023-07-07T18:17:37.689Z,19.41
2023-07-07T18:20:50.178Z,18.85
2023-07-07T18:22:11.518Z,19.21
2023-07-07T18:24:13.707Z,18.76
2023-07-07T18:26:30.874Z,18.92
2023-07-07T18:28:35.265Z,19.35
2023-07-07T18:30:41.559Z,19.54
2023-07-07T18:32:43.433Z,19.63
2023-07-07T18:34:45.067Z,20.05
2023-07-07T18:36:49.539Z,19.96
2023-07-07T18:38:51.686Z,19.34
2023-07-07T18:40:56.296Z,19.79
2023-07-07T18:42:59.599Z,19.48
2023-07-07T18:45:01.262Z,20.13
2023-07-07T18:47:03.190Z,19.98
2023-07-07T18:49:08.842Z,20.73
2023-07-07T18:51:17.298Z,20.81
2023-07-07T18:53:19.248Z,20.70
2023-07-07T18:55:20.911Z,21.04
2023-07-07T18:57:22.516Z,22.04
2023-07-07T18:59:28.659Z,21.61
2023-07-07T19:01:30.401Z,21.25
2023-07-07T19:03:32.275Z,21.42
2023-07-07T19:05:34.270Z,21.78
2023-07-07T19:07:38.369Z,22.73
2023-07-07T19:09:40.202Z,21.26
2023-07-07T19:11:42.304Z,21.16
2023-07-07T19:13:44.173Z,21.66
2023-07-07T19:15:49.919Z,21.72
2023-07-07T19:17:51.691Z,21.53
2023-07-07T19:19:53.352Z,21.58
2023-07-07T19:21:55.148Z,21.56
2023-07-07T19:23:58.217Z,21.73
2023-07-07T19:26:00.443Z,21.58
2023-07-07T19:28:02.296Z,21.86
2023-07-07T19:30:13.482Z,22.82
2023-07-07T19:32:16.895Z,22.65
2023-07-07T19:34:18.710Z,23.15
2023-07-07T19:36:23.241Z,24.82
2023-07-07T19:38:26.594Z,23.53
2023-07-07T19:40:32.242Z,23.65
2023-07-07T19:42:33.866Z,23.98
2023-07-07T19:44:35.461Z,25.09
2023-07-07T19:46:37.829Z,24.97
2023-07-07T19:48:41.070Z,25.16
2023-07-07T19:50:44.729Z,25.38
2023-07-07T19:52:46.463Z,25.62
2023-07-07T19:54:48.576Z,25.95
2023-07-07T19:56:50.508Z,26.49
2023-07-07T19:58:53.718Z,27.14
2023-07-07T20:00:55.352Z,25.51
2023-07-07T20:02:57.002Z,25.60
2023-07-07T20:05:00.689Z,25.91
2023-07-07T20:07:02.435Z,25.10
2023-07-07T20:09:06.715Z,25.92
2023-07-07T20:11:13.446Z,25.88
2023-07-07T20:13:15.077Z,26.37
2023-07-07T20:15:18.004Z,26.37
2023-07-07T20:17:19.848Z,26.59
2023-07-07T20:19:23.097Z,25.48
2023-07-07T20:21:27.130Z,26.88
2023-07-07T20:23:29.005Z,27.09
2023-07-07T20:25:30.766Z,26.34
2023-07-07T20:27:32.668Z,26.12
2023-07-07T20:29:34.644Z,26.48
2023-07-07T20:31:36.581Z,26.22
2023-07-07T20:33:38.215Z,26.62
2023-07-07T20:35:40.778Z,26.32
2023-07-07T20:37:43.753Z,26.84
2023-07-07T20:39:45.466Z,26.88
2023-07-07T20:41:48.843Z,27.27
2023-07-07T20:43:50.565Z,26.14
2023-07-07T20:45:52.307Z,27.63
2023-07-07T20:47:54.185Z,27.13
2023-07-07T20:49:55.877Z,26.68
2023-07-07T20:51:57.610Z,26.39
2023-07-07T20:54:00.698Z,26.70
2023-07-07T20:56:09.068Z,26.99
2023-07-07T20:58:11.449Z,27.84
2023-07-07T21:00:18.413Z,27.57
2023-07-07T21:02:20.196Z,28.20
2023-07-07T21:04:21.987Z,28.16
2023-07-07T21:06:24.006Z,27.80
2023-07-07T21:08:25.728Z,26.92
2023-07-07T21:10:32.626Z,27.31
2023-07-07T21:12:34.321Z,26.10
2023-07-07T21:14:36.468Z,27.65
2023-07-07T21:16:43.004Z,27.89
2023-07-07T21:18:44.749Z,27.50
2023-07-07T21:20:47.116Z,27.21
2023-07-07T21:22:48.716Z,27.41
2023-07-07T21:24:50.365Z,26.50
2023-07-07T21:26:53.665Z,26.99
2023-07-07T21:28:56.042Z,27.57
2023-07-07T21:30:57.850Z,27.26
2023-07-07T21:32:59.702Z,27.56
2023-07-07T21:35:01.525Z,27.64
2023-07-07T21:37:03.234Z,27.41
2023-07-07T21:39:17.694Z,28.26
2023-07-07T21:41:22.073Z,27.96
2023-07-07T21:43:26.933Z,28.84
2023-07-07T21:45:28.711Z,27.69
2023-07-07T21:47:30.356Z,27.12
2023-07-07T21:49:32.290Z,27.59
2023-07-07T21:51:33.927Z,26.67
2023-07-07T21:53:35.584Z,26.61
2023-07-07T21:55:37.814Z,25.21
2023-07-07T21:57:48.729Z,24.74
2023-07-07T21:59:51.848Z,25.37
2023-07-07T22:01:57.913Z,24.63
2023-07-07T22:03:59.666Z,24.16
2023-07-07T22:06:01.673Z,25.28
2023-07-07T22:08:03.366Z,24.10
2023-07-07T22:10:27.005Z,24.41
2023-07-07T22:12:28.626Z,26.29
2023-07-07T22:14:30.304Z,25.21
2023-07-07T22:16:33.576Z,24.29
2023-07-07T22:18:42.175Z,23.30
2023-07-07T22:20:58.762Z,23.29
2023-07-07T22:23:01.858Z,23.05
2023-07-07T22:25:03.858Z,23.09
2023-07-07T22:27:05.653Z,22.83
2023-07-07T22:29:11.756Z,22.96
2023-07-07T22:31:14.874Z,22.73
2023-07-07T22:33:18.130Z,22.79
2023-07-07T22:35:20.173Z,22.84
2023-07-07T22:37:21.774Z,22.70
2023-07-07T22:39:23.599Z,22.39
2023-07-07T22:41:27.213Z,22.15
2023-07-07T22:43:28.834Z,22.16
2023-07-07T22:45:30.459Z,22.11
2023-07-07T22:47:32.173Z,22.19
2023-07-07T22:49:35.230Z,21.94
2023-07-07T22:51:36.957Z,22.16
2023-07-07T22:53:38.600Z,22.02
2023-07-07T22:55:42.167Z,22.33
2023-07-07T22:57:44.457Z,22.07
2023-07-07T22:59:46.056Z,21.90
2023-07-07T23:01:47.709Z,22.21
2023-07-07T23:03:51.449Z,21.46
2023-07-07T23:05:54.566Z,21.69
2023-07-07T23:07:56.267Z,21.24
2023-07-07T23:09:59.604Z,21.25
2023-07-07T23:12:01.430Z,21.24
2023-07-07T23:14:03.077Z,21.12
2023-07-07T23:16:11.056Z,21.12
2023-07-07T23:18:14.311Z,21.80
2023-07-07T23:20:18.713Z,21.58
2023-07-07T23:22:23.870Z,21.46
2023-07-07T23:24:25.576Z,21.58
2023-07-07T23:26:27.174Z,21.84
2023-07-07T23:28:29.408Z,21.91
2023-07-07T23:30:33.256Z,21.15
2023-07-07T23:32:35.007Z,21.37
2023-07-07T23:34:36.665Z,21.60
2023-07-07T23:36:38.324Z,21.65
2023-07-07T23:38:41.322Z,21.34
2023-07-07T23:40:43.625Z,21.38
2023-07-07T23:42:45.356Z,21.98
2023-07-07T23:44:47.040Z,23.40
2023-07-07T23:46:48.827Z,23.94
2023-07-07T23:48:50.548Z,23.10
2023-07-07T23:50:55.259Z,24.38
2023-07-07T23:52:57.170Z,23.84
2023-07-07T23:55:00.119Z,24.35
2023-07-07T23:57:02.003Z,23.98
2023-07-07T23:59:09.149Z,24.72
